createdAt,value
2019-05-14T06:15:44.721Z,298.13
2019-05-14T06:16:29.749Z,298.13
2019-05-14T06:17:29.774Z,298.13
2019-05-14T06:18:29.780Z,298.13
2019-05-14T06:19:29.790Z,309.38
2019-05-14T06:20:29.797Z,309.38
2019-05-14T06:21:29.822Z,303.75
2019-05-14T06:22:29.813Z,309.38
2019-05-14T06:23:29.825Z,315.00
2019-05-14T06:24:29.905Z,315.00
2019-05-14T06:25:31.169Z,320.63
2019-05-14T06:26:29.852Z,326.25
2019-05-14T06:27:29.869Z,326.25
2019-05-14T06:28:33.295Z,320.63
2019-05-14T06:29:29.932Z,326.25
2019-05-14T06:30:29.906Z,326.25
2019-05-14T06:31:29.923Z,326.25
2019-05-14T06:32:29.930Z,343.13
2019-05-14T06:33:29.934Z,337.50
2019-05-14T06:34:29.959Z,343.13
2019-05-14T06:35:29.961Z,337.50
2019-05-14T06:36:29.972Z,337.50
2019-05-14T06:37:30.207Z,343.13
2019-05-14T06:38:30.042Z,348.75
2019-05-14T06:39:30.065Z,354.38
2019-05-14T06:40:30.023Z,354.38
2019-05-14T06:41:30.033Z,354.38
2019-05-14T06:42:30.047Z,354.38
2019-05-14T06:43:30.065Z,360.00
2019-05-14T06:44:30.075Z,365.63
2019-05-14T06:45:30.088Z,371.25
2019-05-14T06:46:30.109Z,376.88
2019-05-14T06:47:30.106Z,376.88
2019-05-14T06:48:34.346Z,382.50
2019-05-14T06:49:30.134Z,376.88
2019-05-14T06:50:30.151Z,388.13
2019-05-14T06:51:30.157Z,388.13
2019-05-14T06:52:30.171Z,393.75
2019-05-14T06:53:30.192Z,405.00
2019-05-14T06:54:30.194Z,405.00
2019-05-14T06:55:30.209Z,405.00
2019-05-14T06:56:30.225Z,416.25
2019-05-14T06:57:30.242Z,421.88
2019-05-14T06:58:30.252Z,421.88
2019-05-14T06:59:30.367Z,421.88
2019-05-14T07:00:30.270Z,433.13
2019-05-14T07:01:30.294Z,438.75
2019-05-14T07:02:30.306Z,444.38
2019-05-14T07:03:30.321Z,472.50
2019-05-14T07:04:30.338Z,472.50
2019-05-14T07:05:30.345Z,416.25
2019-05-14T07:06:30.354Z,416.25
2019-05-14T07:07:30.414Z,461.25
2019-05-14T07:08:30.382Z,483.75
2019-05-14T07:09:30.404Z,489.38
2019-05-14T07:10:30.422Z,500.63
2019-05-14T07:11:30.425Z,506.25
2019-05-14T07:12:30.442Z,517.50
2019-05-14T07:13:30.475Z,534.38
2019-05-14T07:14:30.548Z,523.13
2019-05-14T07:15:30.513Z,528.75
2019-05-14T07:16:30.503Z,534.38
2019-05-14T07:17:30.509Z,545.63
2019-05-14T07:18:45.734Z,556.88
2019-05-14T07:19:30.540Z,573.75
2019-05-14T07:20:30.565Z,545.63
2019-05-14T07:21:30.568Z,562.50
2019-05-14T07:22:30.590Z,585.00
2019-05-14T07:23:30.597Z,585.00
2019-05-14T07:24:30.609Z,607.50
2019-05-14T07:25:30.638Z,630.00
2019-05-14T07:26:30.655Z,618.75
2019-05-14T07:27:30.674Z,624.38
2019-05-14T07:28:30.681Z,652.50
2019-05-14T07:29:30.697Z,630.00
2019-05-14T07:30:30.708Z,641.25
2019-05-14T07:31:30.717Z,652.50
2019-05-14T07:32:30.736Z,658.13
2019-05-14T07:33:30.748Z,669.38
2019-05-14T07:34:30.789Z,669.38
2019-05-14T07:35:30.769Z,697.50
2019-05-14T07:36:30.797Z,708.75
2019-05-14T07:37:30.814Z,697.50
2019-05-14T07:38:30.824Z,630.00
2019-05-14T07:39:30.836Z,714.38
2019-05-14T07:40:30.857Z,731.25
2019-05-14T07:41:30.877Z,731.25
2019-05-14T07:42:30.885Z,765.00
2019-05-14T07:43:30.901Z,770.63
2019-05-14T07:44:30.919Z,804.38
2019-05-14T07:45:33.307Z,804.38
2019-05-14T07:46:30.950Z,798.75
2019-05-14T07:47:30.950Z,815.63
2019-05-14T07:48:30.974Z,838.13
2019-05-14T07:49:30.981Z,849.38
2019-05-14T07:50:31.008Z,871.88
2019-05-14T07:51:31.023Z,855.00
2019-05-14T07:52:31.040Z,871.88
2019-05-14T07:53:38.543Z,877.50
2019-05-14T07:54:31.072Z,900.00
2019-05-14T07:55:31.084Z,894.38
2019-05-14T07:56:31.097Z,911.25
2019-05-14T07:57:31.109Z,928.13
2019-05-14T07:58:31.124Z,933.75
2019-05-14T07:59:31.148Z,961.88
2019-05-14T08:00:31.160Z,973.13
2019-05-14T08:01:31.180Z,978.75
2019-05-14T08:02:31.195Z,1001.25
2019-05-14T08:03:31.201Z,1023.75
2019-05-14T08:04:31.226Z,1023.75
2019-05-14T08:05:31.238Z,1006.88
2019-05-14T08:06:31.248Z,1035.00
2019-05-14T08:07:31.269Z,1068.75
2019-05-14T08:08:31.297Z,1068.75
2019-05-14T08:09:31.359Z,1023.75
2019-05-14T08:10:31.318Z,1029.38
2019-05-14T08:11:31.338Z,1091.25
2019-05-14T08:12:31.351Z,1119.38
2019-05-14T08:13:31.363Z,1125.00
2019-05-14T08:14:42.103Z,1147.50
2019-05-14T08:15:31.395Z,1001.25
2019-05-14T08:16:31.515Z,1125.00
2019-05-14T08:17:31.427Z,1164.38
2019-05-14T08:18:31.449Z,1147.50
2019-05-14T08:19:34.311Z,1198.13
2019-05-14T08:20:31.473Z,877.50
2019-05-14T08:21:31.491Z,1203.75
2019-05-14T08:22:31.513Z,1243.13
2019-05-14T08:23:31.521Z,1243.13
2019-05-14T08:24:31.551Z,1260.00
2019-05-14T08:25:31.559Z,1276.88
2019-05-14T08:26:31.587Z,1288.13
2019-05-14T08:27:31.587Z,1288.13
2019-05-14T08:28:31.606Z,1288.13
2019-05-14T08:29:31.621Z,1299.38
2019-05-14T08:30:31.638Z,1293.75
2019-05-14T08:31:31.651Z,1299.38
2019-05-14T08:32:31.682Z,1321.88
2019-05-14T08:33:31.687Z,1350.00
2019-05-14T08:34:32.396Z,1361.25
2019-05-14T08:35:34.223Z,1395.00
2019-05-14T08:36:31.735Z,1395.00
2019-05-14T08:37:31.760Z,1395.00
2019-05-14T08:38:31.764Z,1428.75
2019-05-14T08:39:31.777Z,1462.50
2019-05-14T08:40:31.798Z,540.00
2019-05-14T08:41:31.815Z,1479.38
2019-05-14T08:42:34.100Z,1513.13
2019-05-14T08:43:31.850Z,1530.00
2019-05-14T08:44:31.869Z,1524.38
2019-05-14T08:45:31.904Z,1541.25
2019-05-14T08:46:31.900Z,534.38
2019-05-14T08:47:31.918Z,1597.50
2019-05-14T08:48:31.944Z,1591.88
2019-05-14T08:49:43.936Z,1569.38
2019-05-14T08:50:31.962Z,1603.13
2019-05-14T08:51:31.985Z,1676.25
2019-05-14T08:52:31.998Z,1620.00
2019-05-14T08:53:32.031Z,1676.25
2019-05-14T08:54:32.051Z,1698.75
2019-05-14T08:55:32.049Z,1665.00
2019-05-14T08:56:32.065Z,1698.75
2019-05-14T08:57:32.133Z,1726.88
2019-05-14T08:58:32.093Z,1693.13
2019-05-14T08:59:32.115Z,652.50
2019-05-14T09:00:32.135Z,765.00
2019-05-14T09:01:32.142Z,1755.00
2019-05-14T09:02:32.168Z,883.13
2019-05-14T09:03:32.182Z,1479.38
2019-05-14T09:04:32.202Z,1693.13
2019-05-14T09:05:32.216Z,607.50
2019-05-14T09:06:32.239Z,585.00
2019-05-14T09:07:32.262Z,596.25
2019-05-14T09:08:32.257Z,613.13
2019-05-14T09:09:32.277Z,624.38
2019-05-14T09:10:32.296Z,703.13
2019-05-14T09:11:35.337Z,630.00
2019-05-14T09:12:32.330Z,697.50
2019-05-14T09:13:32.339Z,1940.63
2019-05-14T09:14:32.358Z,585.00
2019-05-14T09:15:32.387Z,534.38
2019-05-14T09:16:45.917Z,528.75
2019-05-14T09:17:32.398Z,511.88
2019-05-14T09:18:32.415Z,534.38
2019-05-14T09:19:32.433Z,652.50
2019-05-14T09:21:32.455Z,1923.75
2019-05-14T09:23:32.488Z,1884.38
2019-05-14T09:24:32.497Z,1845.00
2019-05-14T09:25:32.534Z,1794.38
2019-05-14T09:26:32.537Z,540.00
2019-05-14T09:27:32.551Z,1552.50
2019-05-14T09:28:32.559Z,1631.25
2019-05-14T09:29:32.582Z,928.13
2019-05-14T09:30:32.593Z,1063.13
2019-05-14T09:31:32.609Z,551.25
2019-05-14T09:32:32.632Z,540.00
2019-05-14T09:33:32.636Z,523.13
2019-05-14T09:34:32.653Z,551.25
2019-05-14T09:35:32.668Z,1816.88
2019-05-14T09:36:32.678Z,1839.38
2019-05-14T09:37:32.694Z,1884.38
2019-05-14T09:38:32.706Z,1951.88
2019-05-14T09:39:32.723Z,1980.00
2019-05-14T09:40:32.744Z,669.38
2019-05-14T09:41:32.757Z,596.25
2019-05-14T09:42:32.770Z,601.88
2019-05-14T09:43:32.784Z,624.38
2019-05-14T09:44:32.797Z,618.75
2019-05-14T09:45:32.816Z,618.75
2019-05-14T09:46:32.832Z,641.25
2019-05-14T09:47:32.848Z,613.13
2019-05-14T09:48:32.852Z,601.88
2019-05-14T09:49:32.876Z,540.00
2019-05-14T09:50:32.887Z,506.25
2019-05-14T09:51:32.900Z,500.63
2019-05-14T09:52:32.917Z,500.63
2019-05-14T09:53:32.937Z,500.63
2019-05-14T09:54:32.941Z,585.00
2019-05-14T09:55:32.946Z,1158.75
2019-05-14T09:56:33.048Z,1018.13
2019-05-14T09:57:32.981Z,2002.50
2019-05-14T09:58:32.993Z,635.63
2019-05-14T09:59:33.023Z,1940.63
2019-05-14T10:00:33.025Z,1428.75
2019-05-14T10:01:33.038Z,1839.38
2019-05-14T10:02:33.056Z,1845.00
2019-05-14T10:03:33.055Z,1839.38
2019-05-14T10:04:33.126Z,618.75
2019-05-14T10:05:33.091Z,506.25
2019-05-14T10:06:33.100Z,511.88
2019-05-14T10:07:33.125Z,534.38
2019-05-14T10:08:33.138Z,556.88
2019-05-14T10:09:33.152Z,556.88
2019-05-14T10:10:33.170Z,545.63
2019-05-14T10:11:33.171Z,506.25
2019-05-14T10:12:33.187Z,483.75
2019-05-14T10:13:33.201Z,483.75
2019-05-14T10:14:33.234Z,489.38
2019-05-14T10:15:33.238Z,596.25
2019-05-14T10:16:33.247Z,967.50
2019-05-14T10:17:33.275Z,1873.13
2019-05-14T10:18:33.276Z,1935.00
2019-05-14T10:19:33.288Z,2131.88
2019-05-14T10:20:41.086Z,2092.50
2019-05-14T10:21:33.324Z,2098.13
2019-05-14T10:22:33.328Z,2013.75
2019-05-14T10:23:33.468Z,2002.50
2019-05-14T10:25:33.369Z,641.25
2019-05-14T10:26:33.384Z,703.13
2019-05-14T10:27:33.398Z,697.50
2019-05-14T10:28:33.410Z,568.13
2019-05-14T10:29:33.444Z,517.50
2019-05-14T10:30:33.461Z,511.88
2019-05-14T10:31:33.470Z,551.25
2019-05-14T10:32:33.483Z,1946.25
2019-05-14T10:33:33.493Z,714.38
2019-05-14T10:34:33.510Z,1355.63
2019-05-14T10:35:33.524Z,2165.63
2019-05-14T10:36:33.529Z,2081.25
2019-05-14T10:37:33.555Z,995.63
2019-05-14T10:38:33.564Z,691.88
2019-05-14T10:39:33.582Z,641.25
2019-05-14T10:40:33.606Z,2154.38
2019-05-14T10:41:33.615Z,2081.25
2019-05-14T10:42:33.617Z,911.25
2019-05-14T10:43:33.634Z,2221.88
2019-05-14T10:44:33.668Z,776.25
2019-05-14T10:45:33.671Z,2041.88
2019-05-14T10:46:33.689Z,2098.13
2019-05-14T10:47:33.707Z,2103.75
2019-05-14T10:48:33.786Z,641.25
2019-05-14T10:49:33.730Z,787.50
2019-05-14T10:50:37.870Z,601.88
2019-05-14T10:51:33.758Z,630.00
2019-05-14T10:52:33.781Z,815.63
2019-05-14T10:53:33.812Z,596.25
2019-05-14T10:54:33.800Z,590.63
2019-05-14T10:55:33.856Z,669.38
2019-05-14T10:56:33.834Z,2098.13
2019-05-14T10:57:33.861Z,2131.88
2019-05-14T10:58:34.210Z,2131.88
2019-05-14T10:59:33.912Z,2115.00
2019-05-14T11:00:33.912Z,2092.50
2019-05-14T11:01:33.914Z,2025.00
2019-05-14T11:02:33.947Z,2025.00
2019-05-14T11:03:33.930Z,2019.38
2019-05-14T11:04:34.556Z,1980.00
2019-05-14T11:05:33.959Z,2013.75
2019-05-14T11:06:34.001Z,2047.50
2019-05-14T11:07:34.019Z,1541.25
2019-05-14T11:08:34.109Z,2103.75
2019-05-14T11:09:34.035Z,1102.50
2019-05-14T11:10:34.133Z,590.63
2019-05-14T11:11:34.151Z,573.75
2019-05-14T11:12:34.232Z,798.75
2019-05-14T11:13:34.288Z,894.38
2019-05-14T11:14:34.356Z,2171.25
2019-05-14T11:15:34.414Z,1811.25
2019-05-14T11:16:34.467Z,652.50
2019-05-14T11:17:34.297Z,596.25
2019-05-14T11:18:34.188Z,2103.75
2019-05-14T11:19:34.303Z,2188.13
2019-05-14T11:20:34.203Z,2210.63
2019-05-14T11:21:34.214Z,624.38
2019-05-14T11:22:34.240Z,1777.50
2019-05-14T11:23:34.267Z,635.63
2019-05-14T11:24:34.274Z,2115.00
2019-05-14T11:25:34.277Z,2092.50
2019-05-14T11:26:34.314Z,2053.13
2019-05-14T11:27:34.320Z,2086.88
2019-05-14T11:28:34.335Z,2081.25
2019-05-14T11:29:34.345Z,2019.38
2019-05-14T11:30:34.376Z,2070.00
2019-05-14T11:31:34.516Z,2210.63
2019-05-14T11:32:34.386Z,2064.38
2019-05-14T11:33:34.407Z,1940.63
2019-05-14T11:34:34.433Z,1946.25
2019-05-14T11:35:34.449Z,2053.13
2019-05-14T11:36:34.468Z,2092.50
2019-05-14T11:37:34.497Z,2098.13
2019-05-14T11:38:37.555Z,2086.88
2019-05-14T11:39:34.509Z,2098.13
2019-05-14T11:40:34.543Z,2143.13
2019-05-14T11:41:34.539Z,2115.00
2019-05-14T11:42:34.565Z,1991.25
2019-05-14T11:43:34.571Z,1861.88
2019-05-14T11:44:34.596Z,1794.38
2019-05-14T11:45:34.620Z,1816.88
2019-05-14T11:46:47.594Z,725.63
2019-05-14T11:47:34.655Z,658.13
2019-05-14T11:48:34.675Z,596.25
2019-05-14T11:49:34.704Z,2025.00
2019-05-14T11:50:34.723Z,765.00
2019-05-14T11:51:58.946Z,798.75
2019-05-14T11:52:34.732Z,1991.25
2019-05-14T11:53:34.791Z,1935.00
2019-05-14T11:54:34.761Z,1203.75
2019-05-14T11:55:34.776Z,2182.50
2019-05-14T11:56:34.786Z,2176.88
2019-05-14T11:57:34.818Z,2115.00
2019-05-14T11:58:34.837Z,2041.88
2019-05-14T11:59:34.847Z,2013.75
2019-05-14T12:00:34.860Z,2002.50
2019-05-14T12:01:34.878Z,1968.75
2019-05-14T12:02:34.908Z,2030.63
2019-05-14T12:03:34.966Z,2115.00
2019-05-14T12:04:35.056Z,2148.75
2019-05-14T12:05:34.996Z,2182.50
2019-05-14T12:06:34.956Z,2148.75
2019-05-14T12:07:34.987Z,2058.75
2019-05-14T12:08:35.011Z,658.13
2019-05-14T12:09:35.673Z,1029.38
2019-05-14T12:10:35.017Z,2154.38
2019-05-14T12:11:35.043Z,2081.25
2019-05-14T12:12:35.073Z,2008.13
2019-05-14T12:13:35.073Z,2008.13
2019-05-14T12:14:35.099Z,1991.25
2019-05-14T12:15:35.110Z,2053.13
2019-05-14T12:16:35.130Z,2047.50
2019-05-14T12:17:35.145Z,1985.63
2019-05-14T12:18:35.158Z,1996.88
2019-05-14T12:19:35.208Z,2041.88
2019-05-14T12:20:35.208Z,2070.00
2019-05-14T12:21:35.215Z,618.75
2019-05-14T12:22:35.231Z,596.25
2019-05-14T12:23:35.256Z,562.50
2019-05-14T12:24:35.271Z,1440.00
2019-05-14T12:25:35.397Z,1980.00
2019-05-14T12:26:35.294Z,2002.50
2019-05-14T12:27:35.322Z,2047.50
2019-05-14T12:28:35.355Z,2058.75
2019-05-14T12:29:35.356Z,2047.50
2019-05-14T12:31:35.379Z,2030.63
2019-05-14T12:32:35.422Z,630.00
2019-05-14T12:33:35.410Z,1895.63
2019-05-14T12:34:35.431Z,686.25
2019-05-14T12:35:35.454Z,916.88
2019-05-14T12:36:35.503Z,2030.63
2019-05-14T12:37:38.483Z,2041.88
2019-05-14T12:38:35.509Z,2058.75
2019-05-14T12:39:35.519Z,2013.75
2019-05-14T12:40:38.099Z,2053.13
2019-05-14T12:41:35.545Z,2131.88
2019-05-14T12:42:35.576Z,2115.00
2019-05-14T12:43:35.585Z,2092.50
2019-05-14T12:44:40.044Z,2126.25
2019-05-14T12:45:35.635Z,2081.25
2019-05-14T12:46:35.638Z,1468.13
2019-05-14T12:47:38.251Z,1991.25
2019-05-14T12:48:38.667Z,1991.25
2019-05-14T12:49:35.696Z,1906.88
2019-05-14T12:50:35.713Z,1935.00
2019-05-14T12:51:39.298Z,1957.50
2019-05-14T12:52:35.752Z,1923.75
2019-05-14T12:53:35.768Z,1974.38
2019-05-14T12:54:38.448Z,2019.38
2019-05-14T12:55:35.831Z,1985.63
2019-05-14T12:56:38.788Z,1968.75
2019-05-14T12:57:39.032Z,1968.75
2019-05-14T12:58:42.899Z,1957.50
2019-05-14T12:59:37.908Z,1923.75
2019-05-14T13:00:35.885Z,1946.25
2019-05-14T13:01:35.918Z,1946.25
2019-05-14T13:02:35.926Z,1912.50
2019-05-14T13:03:35.949Z,1878.75
2019-05-14T13:04:35.965Z,1935.00
2019-05-14T13:05:35.989Z,2025.00
2019-05-14T13:06:36.002Z,2047.50
2019-05-14T13:07:36.022Z,1974.38
2019-05-14T13:08:38.398Z,1974.38
2019-05-14T13:09:38.336Z,1974.38
2019-05-14T13:10:38.416Z,2008.13
2019-05-14T13:11:40.973Z,1906.88
2019-05-14T13:12:38.763Z,1940.63
2019-05-14T13:13:36.128Z,1918.13
2019-05-14T13:14:36.152Z,1535.63
2019-05-14T13:15:39.078Z,1800.00
2019-05-14T13:16:36.197Z,613.13
2019-05-14T13:17:38.577Z,601.88
2019-05-14T13:18:38.745Z,630.00
2019-05-14T13:19:37.995Z,736.88
2019-05-14T13:20:38.710Z,573.75
2019-05-14T13:21:38.749Z,551.25
2019-05-14T13:22:42.427Z,545.63
2019-05-14T13:23:38.387Z,1839.38
2019-05-14T13:24:39.450Z,1839.38
2019-05-14T13:25:39.137Z,1850.63
2019-05-14T13:26:38.815Z,1794.38
2019-05-14T13:27:38.954Z,1783.13
2019-05-14T13:28:39.280Z,1816.88
2019-05-14T13:29:36.411Z,590.63
2019-05-14T13:30:36.428Z,635.63
2019-05-14T13:31:36.518Z,1856.25
2019-05-14T13:32:39.053Z,781.88
2019-05-14T13:33:39.029Z,573.75
2019-05-14T13:34:39.368Z,556.88
2019-05-14T13:35:38.869Z,601.88
2019-05-14T13:36:39.503Z,1001.25
2019-05-14T13:37:39.550Z,1237.50
2019-05-14T13:38:39.331Z,1445.63
2019-05-14T13:39:39.584Z,1541.25
2019-05-14T13:40:39.002Z,669.38
2019-05-14T13:41:41.561Z,1760.63
2019-05-14T13:42:39.385Z,1676.25
2019-05-14T13:43:39.117Z,1608.75
2019-05-14T13:44:38.489Z,1608.75
2019-05-14T13:45:39.049Z,1670.63
2019-05-14T13:46:36.696Z,1693.13
2019-05-14T13:47:38.727Z,1608.75
2019-05-14T13:48:42.729Z,1597.50
2019-05-14T13:49:39.115Z,1395.00
2019-05-14T13:50:39.534Z,1614.38
2019-05-14T13:51:38.765Z,1642.50
2019-05-14T13:52:40.415Z,686.25
2019-05-14T13:53:39.085Z,517.50
2019-05-14T13:54:39.153Z,483.75
2019-05-14T13:55:44.228Z,483.75
2019-05-14T13:56:38.885Z,495.00
2019-05-14T13:57:39.816Z,506.25
2019-05-14T13:58:36.890Z,495.00
2019-05-14T13:59:43.780Z,506.25
2019-05-14T14:00:36.911Z,523.13
2019-05-14T14:01:36.974Z,551.25
2019-05-14T14:02:36.975Z,585.00
2019-05-14T14:03:47.003Z,613.13
2019-05-14T14:04:38.185Z,1597.50
2019-05-14T14:05:39.243Z,1513.13
2019-05-14T14:06:39.385Z,1293.75
2019-05-14T14:07:39.469Z,1074.38
2019-05-14T14:08:41.894Z,1344.38
2019-05-14T14:09:39.549Z,1434.38
2019-05-14T14:10:44.518Z,1501.88
2019-05-14T14:11:38.343Z,1462.50
2019-05-14T14:12:39.923Z,1462.50
2019-05-14T14:13:39.191Z,1417.50
2019-05-14T14:14:38.588Z,1383.75
2019-05-14T14:15:38.420Z,1383.75
2019-05-14T14:16:39.543Z,1350.00
2019-05-14T14:17:39.185Z,1209.38
2019-05-14T14:18:39.457Z,984.38
2019-05-14T14:19:38.853Z,1198.13
2019-05-14T14:20:39.423Z,1181.25
2019-05-14T14:21:39.750Z,1327.50
2019-05-14T14:22:40.041Z,1271.25
2019-05-14T14:23:39.237Z,1175.63
2019-05-14T14:24:38.656Z,1186.88
2019-05-14T14:25:39.466Z,1231.88
2019-05-14T14:26:39.333Z,1192.50
2019-05-14T14:27:40.659Z,1220.63
2019-05-14T14:28:39.661Z,1203.75
2019-05-14T14:29:39.542Z,1164.38
2019-05-14T14:30:39.452Z,1164.38
2019-05-14T14:31:41.418Z,1203.75
2019-05-14T14:32:40.210Z,1119.38
2019-05-14T14:33:39.120Z,1074.38
2019-05-14T14:34:41.253Z,540.00
2019-05-14T14:35:38.773Z,787.50
2019-05-14T14:36:38.640Z,545.63
2019-05-14T14:37:39.673Z,900.00
2019-05-14T14:38:40.038Z,826.88
2019-05-14T14:39:37.581Z,573.75
2019-05-14T14:40:39.606Z,826.88
2019-05-14T14:41:38.421Z,1080.00
2019-05-14T14:42:40.106Z,1023.75
2019-05-14T14:43:42.813Z,1029.38
2019-05-14T14:44:39.310Z,1057.50
2019-05-14T14:45:44.714Z,1040.63
2019-05-14T14:46:39.205Z,1029.38
2019-05-14T14:47:39.360Z,1012.50
2019-05-14T14:48:39.619Z,1006.88
2019-05-14T14:49:43.429Z,956.25
2019-05-14T14:51:44.089Z,973.13
2019-05-14T14:52:37.814Z,945.00
2019-05-14T14:53:51.980Z,871.88
2019-05-14T14:54:38.235Z,748.13
2019-05-14T14:55:39.934Z,849.38
2019-05-14T14:56:38.060Z,860.63
2019-05-14T14:57:44.545Z,843.75
2019-05-14T14:58:39.156Z,540.00
2019-05-14T14:59:39.082Z,534.38
2019-05-14T15:00:38.144Z,843.75
2019-05-14T15:01:40.348Z,731.25
2019-05-14T15:02:40.789Z,500.63
2019-05-14T15:03:37.967Z,483.75
2019-05-14T15:04:39.588Z,478.13
2019-05-14T15:05:38.979Z,483.75
2019-05-14T15:06:39.729Z,736.88
2019-05-14T15:07:40.749Z,731.25
2019-05-14T15:08:38.990Z,742.50
2019-05-14T15:09:40.471Z,770.63
2019-05-14T15:10:39.471Z,765.00
2019-05-14T15:11:39.704Z,798.75
2019-05-14T15:12:40.030Z,804.38
2019-05-14T15:13:39.101Z,815.63
2019-05-14T15:14:39.545Z,838.13
2019-05-14T15:15:39.370Z,877.50
2019-05-14T15:16:39.053Z,832.50
2019-05-14T15:17:39.284Z,770.63
2019-05-14T15:18:38.747Z,815.63
2019-05-14T15:19:39.528Z,635.63
2019-05-14T15:20:38.242Z,815.63
2019-05-14T15:21:38.273Z,866.25
2019-05-14T15:22:38.304Z,860.63
2019-05-14T15:23:42.980Z,832.50
2019-05-14T15:24:38.307Z,748.13
2019-05-14T15:25:38.402Z,793.13
2019-05-14T15:26:38.391Z,810.00
2019-05-14T15:27:38.754Z,838.13
2019-05-14T15:28:38.758Z,810.00
2019-05-14T15:29:39.774Z,849.38
2019-05-14T15:30:39.541Z,849.38
2019-05-14T15:31:38.665Z,832.50
2019-05-14T15:32:38.445Z,787.50
2019-05-14T15:33:38.460Z,641.25
2019-05-14T15:34:38.482Z,540.00
2019-05-14T15:35:38.484Z,511.88
2019-05-14T15:36:41.300Z,506.25
2019-05-14T15:37:42.240Z,495.00
2019-05-14T15:38:39.606Z,478.13
2019-05-14T15:39:39.061Z,472.50
2019-05-14T15:40:40.059Z,455.63
2019-05-14T15:41:39.542Z,455.63
2019-05-14T15:42:39.517Z,433.13
2019-05-14T15:43:39.540Z,433.13
2019-05-14T15:44:48.836Z,410.63
2019-05-14T15:45:38.633Z,421.88
2019-05-14T15:46:41.787Z,399.38
2019-05-14T15:48:39.493Z,405.00
2019-05-14T15:49:38.987Z,399.38
2019-05-14T15:50:39.081Z,382.50
2019-05-14T15:51:39.784Z,337.50
2019-05-14T15:52:39.671Z,354.38
2019-05-14T15:53:38.864Z,326.25
2019-05-14T15:54:46.308Z,331.88
2019-05-14T15:55:38.773Z,337.50
2019-05-14T15:56:39.477Z,331.88
2019-05-14T15:57:39.770Z,348.75
2019-05-14T15:58:39.182Z,421.88
2019-05-14T15:59:39.249Z,410.63
2019-05-14T16:00:38.893Z,360.00
2019-05-14T16:01:39.773Z,382.50
2019-05-14T16:02:39.748Z,371.25
2019-05-14T16:03:41.407Z,393.75
2019-05-14T16:05:39.541Z,371.25
2019-05-14T16:06:38.932Z,371.25
2019-05-14T16:07:39.324Z,360.00
2019-05-14T16:08:40.112Z,354.38
2019-05-14T16:09:39.728Z,320.63
2019-05-14T16:10:39.793Z,286.88
2019-05-14T16:11:39.426Z,343.13
2019-05-14T16:12:39.758Z,348.75
2019-05-14T16:13:39.873Z,360.00
2019-05-14T16:14:39.061Z,360.00
2019-05-14T16:15:39.127Z,348.75
2019-05-14T16:16:39.316Z,343.13
2019-05-14T16:17:47.543Z,326.25
2019-05-14T16:18:39.062Z,309.38
2019-05-14T16:20:39.417Z,326.25
2019-05-14T16:21:39.111Z,298.13
2019-05-14T16:22:40.128Z,331.88
2019-05-14T16:23:39.139Z,326.25
2019-05-14T16:24:53.145Z,326.25
2019-05-14T16:25:39.146Z,326.25
2019-05-14T16:26:39.157Z,303.75
2019-05-14T16:27:39.805Z,264.38
2019-05-14T16:28:39.812Z,281.25
2019-05-14T16:29:45.495Z,292.50
2019-05-14T16:30:39.849Z,258.75
2019-05-14T16:31:43.474Z,258.75
2019-05-14T16:32:39.662Z,298.13
2019-05-14T16:33:40.404Z,247.50
2019-05-14T16:34:40.996Z,247.50
2019-05-14T16:35:39.404Z,241.88
2019-05-14T16:36:41.175Z,236.25
2019-05-14T16:37:40.124Z,236.25
2019-05-14T16:39:58.324Z,236.25
2019-05-14T16:49:51.866Z,320.63
2019-05-14T16:50:51.889Z,303.75
2019-05-14T16:51:51.892Z,315.00
2019-05-14T16:52:51.896Z,315.00
2019-05-14T16:53:51.913Z,309.38
2019-05-14T16:54:51.940Z,309.38
2019-05-14T16:55:51.934Z,292.50
2019-05-14T16:56:51.949Z,298.13
2019-05-14T16:57:51.989Z,258.75
2019-05-14T16:58:51.969Z,225.00
2019-05-14T16:59:51.992Z,202.50
2019-05-14T17:00:51.993Z,196.88
2019-05-14T17:01:52.008Z,185.63
2019-05-14T17:02:52.006Z,180.00
2019-05-14T17:03:52.029Z,180.00
2019-05-14T17:04:52.035Z,185.63
2019-05-14T17:05:52.049Z,185.63
2019-05-14T17:06:52.057Z,174.38
2019-05-14T17:07:52.074Z,185.63
2019-05-14T17:08:52.093Z,253.13
2019-05-14T17:09:52.093Z,247.50
2019-05-14T17:10:52.103Z,253.13
2019-05-14T17:11:52.109Z,253.13
2019-05-14T17:12:57.267Z,247.50
2019-05-14T17:13:52.133Z,253.13
2019-05-14T17:14:52.142Z,258.75
2019-05-14T17:15:52.148Z,253.13
2019-05-14T17:16:52.167Z,253.13
2019-05-14T17:17:52.177Z,247.50
2019-05-14T17:18:52.195Z,241.88
2019-05-14T17:19:52.196Z,241.88
2019-05-14T17:20:52.206Z,247.50
2019-05-14T17:21:52.230Z,253.13
2019-05-14T17:22:52.227Z,253.13
2019-05-14T17:23:52.254Z,253.13
2019-05-14T17:24:52.259Z,253.13
2019-05-14T17:25:52.265Z,241.88
2019-05-14T17:26:52.275Z,241.88
2019-05-14T17:27:52.279Z,236.25
2019-05-14T17:28:52.293Z,213.75
2019-05-14T17:29:52.310Z,202.50
2019-05-14T17:30:52.312Z,163.13
2019-05-14T17:31:52.323Z,163.13
2019-05-14T17:32:52.338Z,157.50
2019-05-14T17:33:52.348Z,202.50
2019-05-14T17:34:52.353Z,157.50
2019-05-14T17:35:52.368Z,151.88
2019-05-14T17:36:52.374Z,185.63
2019-05-14T17:37:52.389Z,168.75
2019-05-14T17:38:52.407Z,163.13
2019-05-14T17:39:52.411Z,157.50
2019-05-14T17:40:52.418Z,140.63
2019-05-14T17:41:52.424Z,135.00
2019-05-14T17:42:52.439Z,129.38
2019-05-14T17:43:52.461Z,129.38
2019-05-14T17:44:52.462Z,129.38
2019-05-14T17:45:52.476Z,129.38
2019-05-14T17:46:52.474Z,129.38
2019-05-14T17:47:52.501Z,129.38
2019-05-14T17:48:52.522Z,129.38
2019-05-14T17:49:52.514Z,140.63
2019-05-14T17:50:52.524Z,157.50
2019-05-14T17:51:52.618Z,163.13
2019-05-14T17:52:56.498Z,157.50
2019-05-14T17:53:52.555Z,163.13
2019-05-14T17:55:52.609Z,174.38
2019-05-14T17:56:52.605Z,180.00
2019-05-14T17:57:58.437Z,180.00
2019-05-14T17:58:52.604Z,163.13
2019-05-14T17:59:52.619Z,140.63
2019-05-14T18:00:52.624Z,135.00
2019-05-14T18:01:52.632Z,151.88
2019-05-14T18:02:52.650Z,135.00
2019-05-14T18:03:52.654Z,163.13
2019-05-14T18:04:56.157Z,129.38
2019-05-14T18:05:52.672Z,112.50
2019-05-14T18:06:52.690Z,106.88
2019-05-14T18:07:52.695Z,112.50
2019-05-14T18:08:52.702Z,112.50
2019-05-14T18:09:52.717Z,129.38
2019-05-14T18:10:52.726Z,129.38
2019-05-14T18:11:52.753Z,129.38
2019-05-14T18:12:52.743Z,118.13
2019-05-14T18:13:52.757Z,123.75
2019-05-14T18:14:52.765Z,118.13
2019-05-14T18:15:52.778Z,112.50
2019-05-14T18:16:52.792Z,112.50
2019-05-14T18:17:52.802Z,112.50
2019-05-14T18:18:52.811Z,106.88
2019-05-14T18:19:52.815Z,112.50
2019-05-14T18:20:52.829Z,106.88
2019-05-14T18:21:52.839Z,101.25
2019-05-14T18:22:52.850Z,90.00
2019-05-14T18:23:52.908Z,84.38
2019-05-14T18:24:52.864Z,84.38
2019-05-14T18:26:04.745Z,84.38
2019-05-14T18:26:52.886Z,84.38
2019-05-14T18:27:52.895Z,84.38
2019-05-14T18:28:52.898Z,78.75
2019-05-14T18:30:52.920Z,73.13
2019-05-14T18:31:54.555Z,73.13
2019-05-14T18:32:52.940Z,67.50
2019-05-14T18:33:52.948Z,73.13
2019-05-14T18:34:52.956Z,67.50
2019-05-14T18:35:52.973Z,67.50
2019-05-14T18:36:52.983Z,67.50
2019-05-14T18:37:52.993Z,61.88
2019-05-14T18:38:52.998Z,61.88
2019-05-14T18:39:53.015Z,56.25
2019-05-14T18:40:53.063Z,61.88
2019-05-14T18:41:53.037Z,56.25
2019-05-14T18:42:53.040Z,56.25
2019-05-14T18:43:53.062Z,56.25
2019-05-14T18:44:53.058Z,50.63
2019-05-14T18:45:53.071Z,50.63
2019-05-14T18:46:53.075Z,45.00
2019-05-14T18:47:53.085Z,45.00
2019-05-14T18:48:53.101Z,39.38
2019-05-14T18:49:53.109Z,39.38
2019-05-14T18:50:53.117Z,33.75
2019-05-14T18:51:53.128Z,33.75
2019-05-14T18:52:53.133Z,33.75
2019-05-14T18:53:53.150Z,33.75
2019-05-14T18:54:53.143Z,28.13
2019-05-14T18:55:53.157Z,28.13
2019-05-14T18:56:53.175Z,28.13